Imperial County Airport
KIPL : now visible

Airfield :











YOU CAN JOIN US ON...

 
LOGIN :

Register | Disclaimer

   EN    FR    IT 

 









Legend :    VFR   Marginal VFR   IFR   Intensive IFR   Very Intensive IFR
Visi :
Ceiling :
>= 8 km
>= 3000ft
5 to 8 km
1000 to 3000 ft
1500m to 5 km
500 to 1000 ft
800 to 1500m
200 to 500 ft
< 800m
< 200 ft
Symbols :   Thunderstorms  Fog  Heavy snow  Heavy precipitations  Wind > 20 kt







- Airport Elevation : -54 ft


KIPL - Imperial County

CURRENT METAR :
  • 260253Z AUTO 14011KT 10SM CLR 37/21 A2975 RMK AO2 SLP075 T03720211 55005

EXPIRED METARs :
  • 260153Z AUTO 12009KT 10SM CLR 38/22 A2974 RMK AO2 SLP073 T03830217
  • 260053Z AUTO 12009KT 100V160 10SM CLR 39/22 A2975 RMK AO2 SLP076 T03940217

TAF KIPL
Valid from the 26 at 00:00 until the 27 at 00:00 UTC


252332Z 2600/2624 14009KT P6SM SCT250
FM260500 23008KT P6SM BKN250
FM261000 VRB05KT P6SM BKN250
FM261400 13006KT P6SM SCT250
No reported NOTAMs for that airfield.



MET'MAP, your aeronautical weather chart ! - Copyright ORBIFLY December 2007 - Disclaimer

ORBIFLY MET'MAP TEAM :

Programming & Development : Alexandra Zaïnal
Concept & Development : Baudouin d'Aumeries
Co-Development & Prog : Marc-Olivier Méhu
Technical & hardware support : Manuel Goepfert

Contact : metmap@orbifly.com




SOURCES & CREDITS :

   NOAA       Earth
Advisory